Latest Weather Observations for Cooktown

IDQ60801

Issued at 7:36 pm EST Tuesday 31 March 2015 (issued every 30 minutes, with the page automatically refreshed every 10 minutes)

About weather observations | Map of weather stations | Latest weather observations for QLD | Other Formats
Station Details ID: 031209 Name: COOKTOWN AIRPORT Lat: -15.45 Lon: 145.19 Height: 4.8 m
Data from the previous 72 hours. | See also: Recent months at Cooktown
Date/Time
EST
Temp
°C
App
Temp
°C
Dew
Point
Rel
Hum
%
Delta-T
°C
Wind Press
QNH
hPa
Press
MSL
hPa
Rain
since 9 am
mm
Dir
 
Spd
km/h
Gust
km/h
Spd
kts
Gust
kts
31/07:30pm 27.0 28.7 22.4 76 3.1 ESE 17 24 9 13 1013.1 - 0.8
31/07:00pm 26.8 28.6 21.2 71 3.7 ESE 13 20 7 11 1012.9 - 0.8
31/06:30pm 27.0 27.9 20.9 69 4.0 SE 17 28 9 15 1012.5 - 0.8
31/06:00pm 27.1 28.0 21.9 73 3.5 ESE 20 30 11 16 1012.2 1012.1 0.8
31/05:30pm 27.0 28.8 23.2 80 2.6 ESE 19 32 10 17 1012.0 - 0.8
31/05:00pm 27.0 28.7 23.0 79 2.7 ESE 19 28 10 15 1011.9 - 0.8
31/04:30pm 25.9 29.3 24.0 89 1.3 E 13 20 7 11 1011.8 - 0.8
31/04:27pm 25.9 28.9 24.0 89 1.3 E 15 24 8 13 1011.7 - 0.8
31/04:10pm 25.4 26.2 23.8 91 1.1 ESE 26 39 14 21 1011.8 - 0.8
31/04:01pm 27.3 29.2 23.8 81 2.4 ESE 20 33 11 18 1011.6 - 0.8
31/04:00pm 27.2 28.7 23.7 81 2.4 ESE 22 33 12 18 1011.5 - 0.8
31/03:30pm 25.7 26.9 23.8 89 1.3 E 24 35 13 19 1011.8 - 0.8
31/03:00pm - - - - - ESE 28 41 15 22 1011.8 - 0.8
31/02:06pm 28.0 30.0 23.9 78 2.8 ESE 20 28 11 15 1012.3 - 0.4
31/02:04pm 28.0 29.7 24.1 79 2.7 ESE 22 28 12 15 1012.3 - 0.4
31/02:01pm 27.9 29.5 23.8 78 2.8 ESE 22 30 12 16 1012.3 - 0.4
31/02:00pm 28.0 29.7 24.1 79 2.7 ESE 22 30 12 16 1012.3 - 0.4
31/01:30pm 27.4 29.1 24.7 85 1.9 ESE 24 32 13 17 1012.6 - 0.4
31/01:23pm 27.4 29.6 24.8 86 1.8 ESE 22 32 12 17 1012.6 - 0.4
31/01:09pm 26.9 27.6 24.9 89 1.4 E 30 44 16 24 1012.7 - 0.4
31/01:00pm 28.7 31.4 25.0 80 2.6 ESE 20 30 11 16 1012.8 - 0.0
31/12:45pm 28.6 29.8 23.8 75 3.3 ESE 24 37 13 20 1012.9 - 0.0
31/12:30pm 28.8 30.8 24.0 75 3.3 ESE 20 32 11 17 1013.2 - 0.0
31/12:00pm 30.1 31.1 24.2 70 4.1 ESE 26 43 14 23 1013.7 1013.7 0.0
31/11:30am 29.3 30.5 23.8 72 3.8 ESE 24 39 13 21 1014.3 - 0.0
31/11:00am 29.6 30.5 24.0 72 3.9 E 26 43 14 23 1014.7 - 0.0
31/10:30am 28.3 30.0 24.0 77 3.0 ESE 22 33 12 18 1014.9 - 0.0
31/10:00am 28.8 29.5 23.7 74 3.5 ESE 26 35 14 19 1015.0 - 0.0
31/09:30am 28.8 29.1 22.9 70 4.0 ESE 26 41 14 22 1014.9 - 0.0
31/09:00am 28.2 29.9 23.4 75 3.3 ESE 20 39 11 21 1014.8 1014.7 6.8
31/08:30am 28.8 30.9 23.7 74 3.5 ESE 19 32 10 17 1014.5 - 6.8
31/08:00am 28.1 29.4 23.4 75 3.2 ESE 22 33 12 18 1014.2 - 6.8
31/07:30am 26.7 29.4 23.5 82 2.2 SE 15 22 8 12 1014.0 - 6.8
31/07:14am 26.2 29.2 23.4 84 1.9 SSE 13 22 7 12 1013.8 - 6.8
31/07:04am 26.3 28.3 22.9 81 2.3 SE 17 28 9 15 1013.7 - 6.8
31/07:00am 26.4 28.4 22.9 81 2.4 SE 17 28 9 15 1013.6 - 6.8
31/06:52am 26.3 27.4 22.4 79 2.6 SE 20 35 11 19 1013.6 - 6.8
31/06:37am 26.4 29.4 23.3 83 2.1 SE 13 24 7 13 1013.3 - 6.8
31/06:34am 26.3 29.0 23.4 84 2.0 SE 15 24 8 13 1013.3 - 6.8
31/06:30am 26.4 29.3 23.2 82 2.2 SE 13 24 7 13 1013.2 - 6.8
31/06:18am 26.4 29.3 23.2 82 2.2 SSE 13 22 7 12 1013.1 - 6.8
31/06:00am 26.3 28.8 23.2 83 2.1 SE 15 19 8 10 1013.0 1012.9 6.8
31/05:30am 26.4 29.4 23.3 83 2.1 SE 13 22 7 12 1012.8 - 6.8
31/05:00am 26.3 29.0 23.4 84 2.0 SE 15 28 8 15 1012.6 - 6.8
31/04:30am 26.2 28.8 23.3 84 2.0 ESE 15 22 8 12 1012.4 - 6.8
31/04:00am 26.1 28.8 23.5 85 1.8 SE 15 26 8 14 1012.4 - 6.8
31/03:30am 26.1 28.0 23.5 85 1.8 ESE 19 32 10 17 1012.5 - 6.8
31/03:00am 25.7 27.6 23.5 88 1.5 ESE 19 28 10 15 1012.7 1012.6 6.8
31/02:30am 26.4 28.6 23.2 82 2.2 SE 17 28 9 15 1012.9 - 6.2
31/02:00am 26.1 28.4 23.5 85 1.8 ESE 17 30 9 16 1013.1 - 6.2
31/01:30am 25.8 28.6 23.6 88 1.5 SE 15 26 8 14 1013.5 - 6.2
31/01:02am 25.5 29.2 23.9 91 1.1 SE 11 17 6 9 1013.9 - 6.2
31/01:00am 25.5 29.2 23.9 91 1.1 SE 11 17 6 9 1013.9 - 6.2
31/12:34am 25.0 28.4 24.0 94 0.7 ESE 13 22 7 12 1014.5 - 6.2
31/12:30am 24.9 27.8 23.9 94 0.7 E 15 24 8 13 1014.5 - 6.2
31/12:04am 24.6 30.0 23.9 96 0.5 S 2 7 1 4 1014.8 - 5.4
31/12:00am 24.6 29.3 23.9 96 0.5 S 6 11 3 6 1014.9 1014.7 4.8
 
Date/Time
EST
Temp
°C
App
Temp
°C
Dew
Point
Rel
Hum
%
Delta-T
°C
Wind Press
QNH
hPa
Press
MSL
hPa
Rain
since 9 am
mm
Dir
 
Spd
km/h
Gust
km/h
Spd
kts
Gust
kts
30/11:54pm 24.5 29.1 23.8 96 0.5 S 6 11 3 6 1014.9 - 4.8
30/11:44pm 24.4 29.3 23.7 96 0.5 SE 4 7 2 4 1015.0 - 4.8
30/11:38pm 24.3 28.6 23.6 96 0.5 ESE 7 13 4 7 1015.0 - 4.8
30/11:30pm 24.3 27.8 23.6 96 0.5 E 11 17 6 9 1015.2 - 4.8
30/11:20pm 24.3 26.4 23.7 96 0.4 E 19 28 10 15 1015.4 - 4.6
30/11:14pm 24.3 26.1 23.6 96 0.5 E 20 32 11 17 1015.4 - 4.4
30/11:00pm 24.3 25.0 23.6 96 0.5 E 26 43 14 23 1015.5 - 3.8
30/10:59pm 24.2 24.8 23.5 96 0.5 E 26 43 14 23 1015.5 - 3.8
30/10:46pm 24.7 24.1 23.7 94 0.7 E 33 52 18 28 1015.4 - 1.4
30/10:44pm 24.9 23.7 23.9 94 0.7 E 37 52 20 28 1015.5 - 1.0
30/10:43pm 25.3 23.6 23.8 91 1.0 E 39 52 21 28 1015.5 - 0.0
30/10:30pm 26.3 28.6 23.5 84 1.9 ESE 17 24 9 13 1015.2 - 0.0
30/10:00pm 27.4 28.7 22.7 75 3.2 SE 20 30 11 16 1015.4 - 0.0
30/09:30pm 27.2 28.6 22.6 76 3.1 SE 19 30 10 16 1015.3 - 0.0
30/09:00pm 27.1 29.8 22.8 77 2.9 SE 13 19 7 10 1015.2 1015.1 0.0
30/08:30pm 27.1 29.5 23.0 78 2.8 SE 15 24 8 13 1014.9 - 0.0
30/08:00pm 27.1 28.8 22.3 75 3.2 SE 17 24 9 13 1014.7 - 0.0
30/07:30pm 27.1 29.4 22.7 77 3.0 SE 15 22 8 12 1014.4 - 0.0
30/07:00pm 27.2 29.3 22.5 75 3.2 SE 15 22 8 12 1014.2 - 0.0
30/06:30pm 27.1 29.0 22.7 77 3.0 SE 17 28 9 15 1013.9 - 0.0
30/06:00pm 27.4 29.7 22.7 75 3.2 SE 15 24 8 13 1013.8 1013.7 0.0
30/05:30pm 27.8 29.1 22.3 72 3.7 SE 19 33 10 18 1013.7 - 0.0
30/05:00pm 27.8 28.6 21.8 70 4.0 SE 20 35 11 19 1013.7 - 0.0
30/04:30pm 28.2 28.9 22.3 70 4.0 SE 22 35 12 19 1013.5 - 0.0
30/04:00pm 27.9 28.1 22.1 70 3.9 ESE 24 41 13 22 1013.3 - 0.0
30/03:30pm 28.7 29.5 22.5 69 4.2 SE 22 41 12 22 1013.3 - 0.0
30/03:00pm 28.1 27.5 22.0 69 4.1 ESE 28 39 15 21 1013.3 1013.2 0.0
30/02:48pm 28.4 27.5 22.2 69 4.2 ESE 30 48 16 26 1013.3 - 0.0
30/02:30pm 29.0 28.2 22.4 67 4.5 SE 30 43 16 23 1013.2 - 0.0
30/02:10pm 28.7 28.2 22.2 68 4.4 ESE 28 46 15 25 1013.4 - 0.0
30/02:00pm 29.1 28.5 22.6 68 4.4 ESE 30 43 16 23 1013.4 - 0.0
30/01:35pm 28.9 28.2 21.8 65 4.8 ESE 28 52 15 28 1013.7 - 0.0
30/01:30pm 29.1 28.6 22.1 66 4.7 ESE 28 39 15 21 1013.9 - 0.0
30/01:00pm 29.1 29.2 22.6 68 4.4 ESE 26 46 14 25 1014.2 - 0.0
30/12:30pm 28.4 28.6 22.7 71 3.9 ESE 26 41 14 22 1014.5 - 0.0
30/12:00pm 28.7 28.4 22.5 69 4.2 ESE 28 41 15 22 1014.8 1014.8 0.0
30/11:30am 28.6 28.7 23.2 72 3.7 ESE 28 44 15 24 1015.4 - 0.0
30/11:00am 29.1 29.6 23.3 71 4.0 ESE 26 41 14 22 1015.7 - 0.0
30/10:30am 28.5 28.0 22.9 71 3.8 ESE 30 41 16 22 1015.8 - 0.0
30/10:00am 28.2 29.5 22.3 70 4.0 ESE 19 28 10 15 1015.8 - 0.0
30/09:30am 27.3 28.2 21.9 72 3.6 ESE 20 30 11 16 1015.9 - 0.0
30/09:04am 25.8 25.2 22.7 83 2.1 ESE 30 48 16 26 1016.0 - 0.0
30/09:00am 25.8 24.4 22.2 80 2.4 ESE 33 48 18 26 1016.1 - 32.6
30/08:30am 27.8 27.8 21.0 66 4.5 ESE 22 39 12 21 1015.5 - 32.6
30/08:00am 27.6 27.8 21.4 69 4.1 SE 22 39 12 21 1015.0 - 32.6
30/07:30am 27.3 27.1 21.3 69 4.0 ESE 24 35 13 19 1014.7 - 32.6
30/07:00am 26.8 27.7 22.0 75 3.2 ESE 20 37 11 20 1014.4 - 32.6
30/06:30am 26.3 27.0 21.5 75 3.2 ESE 20 32 11 17 1014.3 - 32.6
30/06:00am 26.3 27.1 21.8 76 3.0 ESE 20 33 11 18 1013.9 1013.8 0.0
30/05:30am 26.0 27.0 22.1 79 2.6 ESE 20 28 11 15 1013.5 - 0.0
30/05:00am 26.1 26.9 22.5 80 2.4 ESE 22 30 12 16 1013.2 - 0.0
30/04:30am 26.2 27.5 22.6 80 2.4 ESE 20 30 11 16 1013.1 - 0.0
30/04:00am 26.0 27.7 23.1 84 2.0 ESE 19 30 10 16 1012.9 - 0.0
30/03:30am 25.4 27.6 23.3 88 1.4 ESE 17 26 9 14 1012.8 - 0.0
30/03:00am 25.1 28.4 23.2 89 1.3 ESE 11 22 6 12 1012.9 1012.8 0.0
30/02:30am 24.7 28.0 23.2 91 1.0 ESE 11 19 6 10 1013.4 - 0.0
30/02:14am 24.5 26.7 23.2 92 0.9 ESE 17 22 9 12 1013.7 - 0.0
30/02:00am 24.5 25.8 23.3 93 0.8 ESE 22 32 12 17 1014.0 - 0.0
30/01:58am 24.6 25.5 23.3 92 0.9 ESE 24 32 13 17 1014.0 - 0.0
30/01:30am 24.0 24.9 23.4 96 0.4 ESE 24 39 13 21 1014.6 - 0.0
30/01:00am 24.2 27.0 23.6 96 0.4 SSE 15 32 8 17 1014.8 - 0.0
30/12:58am 24.2 27.0 23.6 96 0.4 SE 15 32 8 17 1014.8 - 0.0
30/12:30am 23.9 25.8 22.7 93 0.8 SE 17 24 9 13 1015.1 - 0.0
30/12:00am 24.1 25.3 23.2 95 0.6 ESE 22 32 12 17 1015.3 1015.3 0.0
 
Date/Time
EST
Temp
°C
App
Temp
°C
Dew
Point
Rel
Hum
%
Delta-T
°C
Wind Press
QNH
hPa
Press
MSL
hPa
Rain
since 9 am
mm
Dir
 
Spd
km/h
Gust
km/h
Spd
kts
Gust
kts
29/11:41pm 24.0 24.8 23.1 95 0.6 E 24 35 13 19 1015.6 - 0.0
29/11:30pm 23.9 23.6 23.3 96 0.4 E 30 44 16 24 1015.6 - 0.0
29/11:16pm 25.0 27.7 24.1 95 0.6 ESE 17 30 9 16 1015.4 - 0.0
29/11:15pm 25.0 27.7 24.1 95 0.6 ESE 17 22 9 12 1015.4 - 0.0
29/11:03pm 25.0 26.5 23.7 92 0.9 ESE 22 33 12 18 1015.5 - 0.0
29/11:00pm 25.0 26.5 23.7 92 0.9 ESE 22 33 12 18 1015.6 - 0.0
29/10:57pm 25.1 26.7 23.8 92 0.9 ESE 22 32 12 17 1015.6 - 0.0
29/10:30pm 26.0 27.0 23.5 86 1.7 SE 24 35 13 19 1015.3 - 0.0
29/10:00pm 26.2 28.4 23.9 87 1.6 SE 19 30 10 16 1015.4 - 0.0
29/09:30pm 25.7 27.5 23.2 86 1.7 ESE 19 28 10 15 1015.4 - 0.0
29/09:18pm 25.7 27.2 23.0 85 1.8 SE 20 33 11 18 1015.3 - 0.0
29/09:03pm 26.4 28.8 23.6 84 1.9 SE 17 28 9 15 1015.2 - 0.0
29/09:00pm 26.4 28.4 23.6 84 1.9 SE 19 30 10 16 1015.2 1015.1 0.0
29/08:50pm 26.3 28.8 23.8 86 1.7 SE 17 28 9 15 1015.2 - 0.0
29/08:32pm 25.8 28.7 23.9 89 1.3 SE 15 30 8 16 1015.0 - 0.0
29/08:30pm 25.6 28.2 24.0 91 1.1 SE 17 28 9 15 1015.0 - 0.0
29/08:00pm 25.1 28.6 23.5 91 1.1 ESE 11 19 6 10 1014.9 - 0.0
29/07:51pm 25.3 27.6 23.5 90 1.2 SE 17 24 9 13 1014.9 - 0.0
29/07:39pm 25.9 28.3 23.6 87 1.6 SE 17 30 9 16 1014.8 - 0.0
29/07:30pm 26.8 30.0 23.1 80 2.5 SE 11 15 6 8 1014.5 - 0.0
29/07:00pm 26.8 29.5 22.8 79 2.7 SE 13 26 7 14 1014.4 - 0.0
29/06:30pm 26.9 29.6 22.9 79 2.7 SE 13 19 7 10 1014.0 - 0.0
29/06:00pm 26.7 28.9 23.2 81 2.4 ESE 17 22 9 12 1013.6 1013.5 0.0
29/05:30pm 27.6 29.2 22.9 75 3.2 SE 19 32 10 17 1013.2 - 0.0
29/05:00pm 27.8 28.8 22.8 74 3.4 SE 22 37 12 20 1013.0 - 0.0
29/04:30pm 28.1 29.9 23.6 76 3.1 SE 20 37 11 20 1013.0 - 0.0
29/04:00pm 26.4 30.0 23.8 85 1.8 SE 11 15 6 8 1012.9 - 0.0
29/03:44pm 25.6 29.6 23.8 90 1.2 SE 9 13 5 7 1012.9 - 0.0
29/03:30pm 25.6 28.0 23.7 89 1.3 ESE 17 28 9 15 1013.0 - 0.0
29/03:03pm 26.7 29.1 24.2 86 1.7 SE 19 28 10 15 1013.0 - 0.0
29/03:00pm 26.8 28.8 23.9 84 2.0 SE 20 32 11 17 1013.0 1012.9 0.0
29/02:30pm 27.6 29.5 23.8 80 2.6 SE 20 32 11 17 1013.1 - 0.0
29/02:00pm 26.2 28.6 23.7 86 1.7 SSE 17 26 9 14 1013.4 - 0.0
29/01:51pm 25.9 28.3 23.7 88 1.5 SE 17 24 9 13 1013.6 - 0.0
29/01:31pm 25.2 27.4 23.9 92 0.9 SE 19 28 10 15 1014.0 - 0.0
29/01:30pm 25.2 27.4 23.9 92 0.9 SE 19 28 10 15 1014.0 - 0.0
29/01:00pm 25.3 28.7 24.1 93 0.8 ESE 13 20 7 11 1014.3 - 0.0
29/12:58pm 25.4 28.9 24.2 93 0.8 ESE 13 20 7 11 1014.3 - 0.0
29/12:35pm 25.5 28.7 24.3 93 0.8 SSE 15 20 8 11 1014.7 - 0.0
29/12:30pm 25.9 29.5 25.0 95 0.6 SSE 15 20 8 11 1014.8 - 0.0
29/12:00pm 25.0 26.7 24.0 94 0.7 ESE 22 33 12 18 1015.4 1015.3 0.0
29/11:55am 25.7 27.8 23.8 89 1.3 ESE 19 26 10 14 1015.3 - 0.0
29/11:31am 27.3 29.1 23.5 80 2.6 SE 20 33 11 18 1015.3 - 0.0
29/11:30am 27.3 28.9 23.3 79 2.7 SE 20 33 11 18 1015.3 - 0.0
29/11:12am 27.3 28.6 23.3 79 2.7 SE 22 35 12 19 1015.6 - 0.0
29/11:00am 27.0 28.4 23.5 81 2.4 SE 22 35 12 19 1015.6 - 0.0
29/10:30am 26.8 29.0 24.2 86 1.8 SE 20 39 11 21 1015.8 - 0.0
29/10:00am 27.2 29.4 24.0 83 2.2 SE 19 30 10 16 1015.7 - 0.0
29/09:30am 27.6 27.6 23.7 79 2.7 ESE 30 41 16 22 1015.6 - 0.0
29/09:00am 27.1 29.5 23.6 81 2.4 SE 17 28 9 15 1015.4 1015.3 0.4
29/08:30am 27.2 29.2 23.9 82 2.3 ESE 20 30 11 16 1015.0 - 0.4
29/08:00am 26.6 30.7 24.0 86 1.8 SE 9 17 5 9 1014.8 - 0.4
29/07:52am 26.3 30.8 24.0 87 1.6 SE 7 11 4 6 1014.7 - 0.4
29/07:47am 26.4 30.5 23.9 86 1.7 SE 9 17 5 9 1014.7 - 0.4
29/07:30am 25.1 29.2 23.9 93 0.8 SSE 9 17 5 9 1014.6 - 0.4
29/07:03am 24.4 28.0 23.7 96 0.5 S 11 15 6 8 1014.3 - 0.4
29/07:00am 24.3 27.8 23.6 96 0.5 SSE 11 15 6 8 1014.3 - 0.4
29/06:41am 24.1 27.8 23.2 95 0.6 SSW 9 15 5 8 1013.9 - 0.4
29/06:30am 24.0 28.1 23.3 96 0.5 SSE 7 13 4 7 1013.9 - 0.4
29/06:25am 23.9 27.6 23.2 96 0.5 SSE 9 11 5 6 1013.9 - 0.4
29/06:00am 23.7 27.3 23.0 96 0.5 S 9 11 5 6 1013.7 1013.6 0.4
29/05:47am 23.8 28.3 22.9 95 0.6 S 4 7 2 4 1013.6 - 0.4
29/05:30am 23.6 27.5 22.9 96 0.5 SSE 7 9 4 5 1013.5 - 0.4
29/05:27am 23.6 27.5 22.9 96 0.5 SE 7 13 4 7 1013.5 - 0.4
29/05:02am 23.1 27.4 22.7 98 0.3 SSE 4 7 2 4 1013.2 - 0.4
29/05:00am 23.1 27.4 22.7 98 0.3 S 4 7 2 4 1013.2 - 0.4
29/04:30am 22.9 26.6 22.5 98 0.3 WNW 7 9 4 5 1012.8 - 0.4
29/04:00am 22.9 27.5 22.5 98 0.3 WSW 2 6 1 3 1012.8 - 0.4
29/03:30am 22.8 26.5 22.3 97 0.3 WNW 6 7 3 4 1012.8 - 0.4
29/03:00am 23.1 28.1 22.5 96 0.4 CALM 0 0 0 0 1012.9 1012.8 0.4
29/02:30am 23.2 28.2 22.5 96 0.5 CALM 0 0 0 0 1013.1 - 0.4
29/02:00am 23.5 27.5 22.8 96 0.5 WSW 6 7 3 4 1013.5 - 0.4
29/01:50am 23.5 27.3 22.8 96 0.5 W 7 7 4 4 1013.6 - 0.4
29/01:30am 23.5 27.0 22.8 96 0.5 WSW 9 11 5 6 1013.8 - 0.4
29/01:00am 23.6 27.5 22.9 96 0.5 WNW 7 11 4 6 1014.2 - 0.4
29/12:58am 23.6 27.5 23.0 96 0.4 WNW 7 9 4 5 1014.3 - 0.4
29/12:30am 23.8 29.0 22.8 94 0.7 CALM 0 0 0 0 1014.4 - 0.4
29/12:00am 23.8 26.8 22.6 93 0.8 SSE 11 17 6 9 1014.9 1014.8 0.2
 
Date/Time
EST
Temp
°C
App
Temp
°C
Dew
Point
Rel
Hum
%
Delta-T
°C
Wind Press
QNH
hPa
Press
MSL
hPa
Rain
since 9 am
mm
Dir
 
Spd
km/h
Gust
km/h
Spd
kts
Gust
kts
28/11:48pm 23.9 25.0 22.4 91 1.0 SSE 20 32 11 17 1014.9 - 0.0
28/11:30pm 24.0 28.4 21.3 85 1.8 CALM 0 0 0 0 1014.8 - 0.0
28/11:00pm 24.9 28.8 21.1 79 2.5 SSE 2 6 1 3 1014.8 - 0.0
28/10:30pm 25.6 27.8 20.4 73 3.4 SE 9 15 5 8 1014.8 - 0.0
28/10:00pm 25.9 27.9 20.7 73 3.4 SE 11 17 6 9 1014.9 - 0.0
28/09:30pm 26.7 26.9 20.6 69 4.0 ESE 20 32 11 17 1014.7 - 0.0
28/09:00pm 26.7 27.8 21.3 72 3.6 ESE 17 33 9 18 1014.6 1014.5 0.0
28/08:30pm 26.3 27.4 22.4 79 2.6 ESE 20 32 11 17 1014.7 - 0.0
28/08:00pm 26.6 28.2 21.5 73 3.4 ESE 15 24 8 13 1014.3 - 0.0

Other Formats:

Comma delimited format used in spreadsheet applications
http://www.bom.gov.au/fwo/IDQ60801/IDQ60801.95283.axf

JavaScript Object Notation format (JSON) in row-major order
http://www.bom.gov.au/fwo/IDQ60801/IDQ60801.95283.json